Airfield :







YOU CAN JOIN US ON...

 
LOGIN :

Register | Disclaimer

   EN    FR    IT 

 









Legend :    VFR   Marginal VFR   IFR   Intensive IFR   Very Intensive IFR
Visi :
Ceiling :
>= 8 km
>= 3000ft
5 to 8 km
1000 to 3000 ft
1500m to 5 km
500 to 1000 ft
800 to 1500m
200 to 500 ft
< 800m
< 200 ft
Symbols :   Thunderstorms  Fog  Heavy snow  Heavy precipitations  Wind > 20 kt






- Airport Elevation : 36 ft
- IATA code : PTP


TFFR - Le Raizet

CURRENT METAR :
  • 021300Z AUTO 11013KT 9999 FEW024/// BKN029/// BKN035/// 30/24 Q1015 TEMPO 12015G25KT

EXPIRED METARs :
  • 021230Z AUTO 11014KT 9999 SCT019/// BKN025/// BKN033/// 30/24 Q1015 TEMPO 12015G25KT
  • 021200Z AUTO 12008KT 090V150 9999 BKN019/// BKN025/// 29/25 Q1015 NOSIG
  • 021130Z AUTO 12008KT 9999 BKN020/// BKN026/// OVC190/// 29/26 Q1015 NOSIG
  • 021100Z AUTO 10005KT 060V130 9999 FEW018/// SCT054/// BKN190/// 28/25 Q1015 TEMPO 4000 SHRA BKN020TCU
  • 021030Z AUTO 11005KT 9999 SCT018/// BKN027/// OVC190/// 27/25 Q1014 TEMPO 4000 SHRA BKN020TCU

TAF TAF TFFR
Valid from the 02 at 12:00 until the 03 at 12:00 UTC


021000Z 0212/0312 12010KT 9999 SCT030 BKN050
PROB30
TEMPO 0214/0221 12015G25KT
PROB40 0300/0312 VRB02KT
PROB30
TEMPO 0306/0312 4000 SHRA BKN018TCU
TTZP FIR / North America



MET'MAP, your aeronautical weather chart ! - Copyright ORBIFLY December 2007 - Disclaimer

ORBIFLY MET'MAP TEAM :

Programming & Development : Alexandra Zaïnal
Concept & original design : Baudouin d'Aumeries
Assistance for programming : Marc-Olivier Méhu
Technical & hardware support : Manuel Goepfert

Contact : metmap@orbifly.com




SOURCES & CREDITS :

   NOAA